Time;durP1;ratioP1;P1;durP2;ratioP2;P2;SDS_P1;SDS_P2;PMS_P1;PMS_P2;Temp;Humidity;BMP_temperature;BMP_pressure;BME280_temperature;BME280_humidity;BME280_pressure;Samples;Min_cycle;Max_cycle;Signal;HPM_P1;HPM_P2
2021/01/05 00:00:54;;;;;;;21.48;13.32;;;;;;;-0.24;95.75;100050.06;1764170;80;21028;-62
2021/01/05 00:03:21;;;;;;;17.60;12.73;;;;;;;-0.26;95.63;100038.08;1779260;80;21581;-62
2021/01/05 00:05:48;;;;;;;20.88;13.20;;;;;;;-0.27;95.70;100033.81;1757939;80;21000;-62
2021/01/05 00:08:15;;;;;;;23.83;13.83;;;;;;;-0.26;95.79;100041.49;1761240;80;21135;-62
2021/01/05 00:10:42;;;;;;;18.12;12.25;;;;;;;-0.26;95.83;100036.36;1766834;80;21672;-62
2021/01/05 00:13:09;;;;;;;19.32;13.65;;;;;;;-0.23;95.86;100033.80;1756605;80;21695;-62
2021/01/05 00:15:36;;;;;;;21.23;13.68;;;;;;;-0.18;95.87;100040.66;1760460;79;21150;-62
2021/01/05 00:18:03;;;;;;;21.20;13.08;;;;;;;-0.18;95.80;100038.09;1761458;79;21619;-62
2021/01/05 00:20:32;;;;;;;23.80;13.15;;;;;;;-0.19;95.78;100046.23;1765464;79;21127;-62
2021/01/05 00:22:59;;;;;;;24.55;13.83;;;;;;;-0.19;95.82;100039.81;1760632;79;21610;-62
2021/01/05 00:25:28;;;;;;;26.60;15.10;;;;;;;-0.17;95.82;100037.23;1759898;79;20947;-63
2021/01/05 00:27:55;;;;;;;23.27;15.10;;;;;;;-0.18;95.84;100038.09;1771835;80;21132;-62
2021/01/05 00:30:26;;;;;;;22.35;14.70;;;;;;;-0.16;95.82;100036.39;1750819;80;21265;-62
2021/01/05 00:32:54;;;;;;;25.10;14.47;;;;;;;-0.15;95.81;100040.66;1761669;79;21154;-62
2021/01/05 00:35:29;;;;;;;21.25;15.15;;;;;;;-0.16;95.84;100036.39;1774055;79;22089;-62
2021/01/05 00:37:58;;;;;;;23.57;14.45;;;;;;;-0.16;95.78;100033.83;1754756;80;21136;-61
2021/01/05 00:40:27;;;;;;;21.50;13.35;;;;;;;-0.15;95.84;100038.09;1774681;79;21065;-62
2021/01/05 00:42:54;;;;;;;22.65;12.63;;;;;;;-0.14;95.84;100030.81;1759933;80;21129;-62
2021/01/05 00:45:33;;;;;;;21.48;13.58;;;;;;;-0.17;95.72;100039.80;1763868;80;21017;-62
2021/01/05 00:48:00;;;;;;;;;;;;;;;-0.18;95.79;100036.38;1777679;80;21235;-61
2021/01/05 00:50:27;;;;;;;16.55;11.95;;;;;;;-0.17;95.80;100044.93;1767197;80;20202;-62
2021/01/05 00:52:55;;;;;;;18.90;11.10;;;;;;;-0.17;95.88;100048.78;1752784;80;27543;-62
2021/01/05 00:55:22;;;;;;;17.42;11.90;;;;;;;-0.17;95.90;100053.91;1759518;80;21744;-62
2021/01/05 00:57:50;;;;;;;18.80;10.95;;;;;;;-0.20;95.86;100052.62;1766303;80;21148;-62
2021/01/05 01:00:22;;;;;;;17.55;10.98;;;;;;;-0.19;95.89;100046.66;1767026;80;21825;-62
2021/01/05 01:02:51;;;;;;;16.77;11.18;;;;;;;-0.21;95.88;100050.92;1751077;80;21116;-62
2021/01/05 01:05:20;;;;;;;19.57;10.63;;;;;;;-0.23;95.94;100051.77;1761156;78;21065;-62
2021/01/05 01:07:48;;;;;;;16.85;11.12;;;;;;;-0.20;95.98;100047.50;1759847;80;21127;-62
2021/01/05 01:10:15;;;;;;;16.37;9.95;;;;;;;-0.18;95.95;100045.80;1759877;80;21191;-62
2021/01/05 01:12:43;;;;;;;19.35;11.55;;;;;;;-0.17;95.96;100055.20;1764439;80;22579;-62
2021/01/05 01:15:13;;;;;;;16.07;11.25;;;;;;;-0.18;95.92;100046.64;1759346;80;21092;-62
2021/01/05 01:17:39;;;;;;;17.02;10.28;;;;;;;-0.17;95.91;100047.50;1757794;80;21023;-61
2021/01/05 01:20:09;;;;;;;15.40;10.70;;;;;;;-0.17;95.92;100046.21;1763980;80;21318;-62
2021/01/05 01:22:36;;;;;;;16.37;10.85;;;;;;;-0.18;95.91;100052.21;1758736;80;21186;-62
2021/01/05 01:25:04;;;;;;;;;;;;;;;-0.19;95.95;100049.23;1767201;79;21271;-62
2021/01/05 01:27:30;;;;;;;;;;;;;;;-0.19;95.92;100054.36;1774642;80;20475;-61
2021/01/05 01:29:57;;;;;;;15.48;10.82;;;;;;;-0.20;95.98;100046.21;1767383;80;20174;-63
2021/01/05 01:32:25;;;;;;;18.07;10.48;;;;;;;-0.20;96.01;100038.52;1753233;80;22238;-62
2021/01/05 01:34:52;;;;;;;13.50;9.18;;;;;;;-0.20;96.02;100039.80;1769383;80;21203;-62
2021/01/05 01:37:19;;;;;;;18.45;10.20;;;;;;;-0.18;96.07;100047.08;1744607;81;21203;-62
2021/01/05 01:39:48;;;;;;;13.80;9.83;;;;;;;-0.18;96.03;100045.80;1744081;81;21653;-62
2021/01/05 01:42:18;;;;;;;15.10;10.05;;;;;;;-0.16;96.05;100036.39;1720212;81;21013;-62
2021/01/05 01:44:48;;;;;;;15.48;10.23;;;;;;;-0.15;96.00;100048.36;1746140;79;21195;-62
2021/01/05 01:47:26;;;;;;;15.38;11.03;;;;;;;-0.16;95.99;100041.09;1739937;79;21147;-62
2021/01/05 01:50:01;;;;;;;16.87;10.50;;;;;;;-0.14;96.03;100042.36;1743560;81;21222;-62
2021/01/05 01:56:11;;;;;;;16.85;11.45;;;;;;;-0.14;96.06;100038.11;1671981;84;21233;-62
2021/01/05 01:58:58;;;;;;;18.92;10.72;;;;;;;-0.12;96.11;100038.09;1722170;82;21270;-62
2021/01/05 02:01:54;;;;;;;23.52;11.18;;;;;;;-0.07;96.06;100033.83;1830988;76;22724;-62
2021/01/05 02:04:44;;;;;;;20.62;11.50;;;;;;;-0.10;96.08;100044.09;1792479;79;21028;-61
2021/01/05 02:07:19;;;;;;;16.93;10.25;;;;;;;-0.10;96.10;100031.27;1785112;79;21145;-62
2021/01/05 02:10:03;;;;;;;16.02;10.78;;;;;;;-0.08;96.10;100030.84;1795281;78;21025;-61
2021/01/05 02:13:01;;;;;;;16.62;10.32;;;;;;;-0.07;96.13;100026.13;1792819;79;21057;-61
2021/01/05 02:15:42;;;;;;;13.93;10.15;;;;;;;-0.06;96.11;100027.83;1791207;79;21048;-61
2021/01/05 02:18:29;;;;;;;15.40;9.88;;;;;;;-0.05;96.12;100032.12;1801524;79;21579;-62
2021/01/05 02:21:11;;;;;;;13.55;9.75;;;;;;;-0.05;96.16;100030.41;1797750;79;21193;-62
2021/01/05 02:23:49;;;;;;;13.85;9.55;;;;;;;-0.03;96.18;100022.70;1792904;77;21048;-62
2021/01/05 02:26:24;;;;;;;12.60;9.35;;;;;;;-0.04;96.15;100019.72;1771215;79;21068;-62
2021/01/05 02:28:56;;;;;;;14.53;9.25;;;;;;;-0.03;96.19;100020.13;1770882;79;21150;-61
2021/01/05 02:32:00;;;;;;;16.67;9.75;;;;;;;-0.04;96.17;100015.86;1792382;77;21170;-61
2021/01/05 02:35:00;;;;;;;18.50;10.40;;;;;;;-0.04;96.19;100009.01;1791688;79;21251;-62
2021/01/05 02:37:58;;;;;;;15.50;9.63;;;;;;;-0.02;96.22;100011.59;1797937;77;21657;-61
2021/01/05 02:40:43;;;;;;;15.85;10.28;;;;;;;-0.02;96.18;100014.16;1799909;77;21705;-62
2021/01/05 02:43:30;;;;;;;17.65;10.05;;;;;;;-0.02;96.19;100003.89;1792054;79;21178;-62
2021/01/05 02:46:46;;;;;;;14.60;9.38;;;;;;;-0.01;96.20;100000.45;1794063;79;21153;-62
2021/01/05 02:49:27;;;;;;;16.17;9.95;;;;;;;0.00;96.25;99999.63;1802066;79;21830;-62
2021/01/05 02:52:22;;;;;;;17.52;9.80;;;;;;;0.01;96.25;99997.91;1739692;80;21015;-62
2021/01/05 02:55:28;;;;;;;18.52;12.07;;;;;;;0.02;96.28;99995.32;1732292;80;21148;-62
2021/01/05 02:58:45;;;;;;;16.82;11.38;;;;;;;0.01;96.24;100005.17;1737964;81;21009;-62
2021/01/05 03:01:39;;;;;;;17.52;11.90;;;;;;;0.02;96.27;100000.45;1729228;82;21218;-62
2021/01/05 03:04:06;;;;;;;21.35;12.82;;;;;;;0.02;96.29;99990.19;1733624;82;21679;-63
2021/01/05 03:06:48;;;;;;;22.20;12.75;;;;;;;0.02;96.27;99999.17;1738141;82;21247;-62
2021/01/05 03:10:00;;;;;;;21.65;12.75;;;;;;;0.02;96.30;100003.45;1726601;82;21531;-62
2021/01/05 03:12:54;;;;;;;19.48;12.03;;;;;;;0.01;96.28;99994.91;1730394;80;21246;-62
2021/01/05 03:15:50;;;;;;;24.80;13.72;;;;;;;0.00;96.26;99997.05;1744368;82;20982;-62
2021/01/05 03:18:44;;;;;;;27.22;13.03;;;;;;;0.01;96.31;99991.05;1728079;82;21654;-62
2021/01/05 03:21:25;;;;;;;22.35;12.65;;;;;;;-0.02;96.21;99989.77;1732137;82;21007;-62
2021/01/05 03:23:54;;;;;;;25.92;14.40;;;;;;;-0.03;96.28;99990.61;1741166;81;21233;-62
2021/01/05 03:26:30;;;;;;;21.40;14.07;;;;;;;-0.04;96.25;99988.91;1740262;80;21048;-62
2021/01/05 03:29:00;;;;;;;25.40;14.13;;;;;;;-0.01;96.31;99990.19;1732893;81;21207;-62
2021/01/05 03:31:50;;;;;;;22.30;14.25;;;;;;;-0.03;96.31;99995.34;1745094;81;21202;-63
2021/01/05 03:34:18;;;;;;;21.30;13.80;;;;;;;-0.01;96.32;99992.75;1749966;81;21166;-63
2021/01/05 03:36:46;;;;;;;21.62;13.85;;;;;;;0.00;96.30;99991.92;1735117;81;21060;-62
2021/01/05 03:39:15;;;;;;;22.30;13.48;;;;;;;-0.01;96.31;99990.19;1747665;81;21205;-62
2021/01/05 03:41:42;;;;;;;18.52;13.18;;;;;;;-0.02;96.26;99985.48;1747303;80;21049;-62
2021/01/05 03:44:09;;;;;;;22.50;14.20;;;;;;;-0.01;96.25;99987.63;1740069;81;22138;-62
2021/01/05 03:46:37;;;;;;;21.00;12.65;;;;;;;-0.02;96.29;99985.92;1740259;81;21080;-62
2021/01/05 03:49:05;;;;;;;24.20;12.98;;;;;;;-0.01;96.29;99982.48;1758100;79;20953;-62
2021/01/05 03:51:32;;;;;;;20.27;12.43;;;;;;;0.00;96.30;99981.66;1727418;82;21243;-62
2021/01/05 03:53:59;;;;;;;20.20;13.08;;;;;;;0.00;96.30;99973.95;1732884;82;21136;-62
2021/01/05 03:56:26;;;;;;;22.95;13.72;;;;;;;0.01;96.27;99978.22;1739760;81;21207;-62
2021/01/05 03:58:53;;;;;;;21.65;14.40;;;;;;;-0.02;96.16;99982.07;1745268;80;21199;-62
2021/01/05 04:01:20;;;;;;;19.55;12.53;;;;;;;-0.04;96.22;99975.64;1727492;82;25028;-62
2021/01/05 04:03:47;;;;;;;18.70;12.18;;;;;;;-0.03;96.29;99976.48;1727128;82;21177;-62
2021/01/05 04:06:14;;;;;;;17.75;11.43;;;;;;;-0.02;96.31;99973.94;1726342;82;21016;-62
2021/01/05 04:08:41;;;;;;;19.20;11.78;;;;;;;-0.02;96.25;99973.09;1730088;81;22892;-62
2021/01/05 04:11:08;;;;;;;17.52;12.45;;;;;;;-0.02;96.28;99980.79;1736152;81;21038;-62
2021/01/05 04:13:35;;;;;;;17.75;11.28;;;;;;;-0.03;96.23;99979.94;1741144;81;21671;-62
2021/01/05 04:16:03;;;;;;;18.90;12.35;;;;;;;-0.02;96.29;99988.48;1742564;80;20967;-62
2021/01/05 04:18:30;;;;;;;16.52;11.35;;;;;;;-0.03;96.26;99981.62;1743398;80;21651;-62
2021/01/05 04:20:57;;;;;;;18.50;11.88;;;;;;;-0.03;96.30;99982.91;1736717;80;21655;-62
2021/01/05 04:23:24;;;;;;;16.95;11.85;;;;;;;-0.03;96.31;99981.62;1739746;81;21639;-62
2021/01/05 04:25:51;;;;;;;20.75;11.95;;;;;;;-0.05;96.30;99974.38;1741221;80;20999;-62
2021/01/05 04:28:18;;;;;;;17.07;12.53;;;;;;;-0.06;96.29;99993.17;1748404;80;20998;-62
2021/01/05 04:30:46;;;;;;;17.20;11.97;;;;;;;-0.06;96.34;99984.19;1744539;80;21146;-62
2021/01/05 04:33:14;;;;;;;19.62;12.80;;;;;;;-0.07;96.32;99987.63;1750554;80;21600;-62
2021/01/05 04:35:41;;;;;;;23.65;12.47;;;;;;;-0.08;96.38;99993.63;1744285;80;21244;-62
2021/01/05 04:38:08;;;;;;;;;;;;;;;-0.06;96.39;99994.46;1758006;80;21074;-63
2021/01/05 04:40:47;;;;;;;19.73;13.55;;;;;;;-0.06;96.40;99986.76;1747924;81;20303;-63
2021/01/05 04:43:37;;;;;;;19.15;13.48;;;;;;;-0.07;96.45;99985.91;1733574;81;21149;-62
2021/01/05 04:46:18;;;;;;;19.17;13.40;;;;;;;-0.06;96.46;99995.31;1734113;80;21965;-63
2021/01/05 04:49:37;;;;;;;21.27;12.58;;;;;;;-0.07;96.43;99990.20;1749673;80;21045;-63
2021/01/05 04:52:12;;;;;;;20.08;13.08;;;;;;;-0.08;96.45;99991.91;1737527;81;21724;-63
2021/01/05 04:54:53;;;;;;;17.00;12.63;;;;;;;-0.07;96.45;99991.48;1750773;81;21110;-63
2021/01/05 04:57:24;;;;;;;22.62;13.75;;;;;;;-0.06;96.51;99989.33;1747331;81;21161;-63
2021/01/05 05:00:05;;;;;;;19.98;13.90;;;;;;;-0.06;96.54;99988.05;1750296;81;21215;-63
2021/01/05 05:02:44;;;;;;;23.30;13.58;;;;;;;-0.06;96.52;99997.88;1735142;80;21104;-64
2021/01/05 05:05:27;;;;;;;18.65;12.90;;;;;;;-0.05;96.54;99993.63;1744348;81;21012;-62
2021/01/05 05:08:15;;;;;;;18.75;13.10;;;;;;;-0.04;96.54;99997.89;1729845;81;21025;-62
2021/01/05 05:10:56;;;;;;;17.32;12.65;;;;;;;-0.04;96.50;99997.89;1741986;81;20984;-62
2021/01/05 05:14:02;;;;;;;18.02;11.45;;;;;;;-0.05;96.51;99997.05;1735642;80;22773;-62
2021/01/05 05:16:58;;;;;;;20.05;12.90;;;;;;;-0.02;96.55;100009.03;1719438;81;21147;-63
2021/01/05 05:19:57;;;;;;;19.02;12.33;;;;;;;-0.04;96.48;100001.74;1738622;81;21499;-63
2021/01/05 05:22:47;;;;;;;19.35;12.43;;;;;;;-0.03;96.53;100011.14;1732381;80;21190;-63
2021/01/05 05:25:20;;;;;;;17.37;12.60;;;;;;;-0.02;96.53;100002.61;1730650;81;21020;-63
2021/01/05 05:28:04;;;;;;;15.20;12.18;;;;;;;-0.02;96.55;100019.30;1745163;81;21215;-63
2021/01/05 05:30:39;;;;;;;20.72;13.35;;;;;;;-0.02;96.58;100005.17;1747073;81;21538;-62
2021/01/05 05:33:14;;;;;;;23.30;14.15;;;;;;;-0.03;96.55;100014.99;1744975;81;21211;-63
2021/01/05 05:36:17;;;;;;;21.55;13.83;;;;;;;-0.05;96.54;100000.05;1747858;81;22166;-63
2021/01/05 05:39:14;;;;;;;19.25;13.40;;;;;;;-0.03;96.56;100003.44;1637851;85;21297;-62
2021/01/05 05:42:02;;;;;;;;;;;;;;;-0.01;96.55;100006.87;1641044;86;21689;-63
2021/01/05 05:45:11;;;;;;;21.00;13.40;;;;;;;0.05;96.61;100002.17;1807041;77;22005;-62
2021/01/05 05:48:12;;;;;;;20.85;14.13;;;;;;;-0.01;96.60;100006.44;1769980;80;21075;-62
2021/01/05 05:51:14;;;;;;;21.73;13.62;;;;;;;0.02;96.64;100000.45;1766472;80;21650;-62
2021/01/05 05:53:53;;;;;;;21.40;13.93;;;;;;;0.02;96.60;100004.30;1766835;80;21597;-62
2021/01/05 05:57:27;;;;;;;25.17;14.47;;;;;;;0.06;96.57;99999.62;1834743;76;22732;-64
2021/01/05 06:00:11;;;;;;;23.57;15.00;;;;;;;0.02;96.60;100003.02;1815597;78;21067;-62
2021/01/05 06:02:38;;;;;;;30.00;16.50;;;;;;;0.06;96.63;100002.19;1805109;78;21281;-62
2021/01/05 06:05:27;;;;;;;21.50;14.00;;;;;;;0.07;96.57;99997.47;1797050;78;21648;-62
2021/01/05 06:07:54;;;;;;;23.92;15.30;;;;;;;0.10;96.59;100003.03;1796735;78;21004;-63
2021/01/05 06:10:21;;;;;;;23.27;14.98;;;;;;;0.07;96.46;99998.75;1762947;78;21158;-62
2021/01/05 06:12:48;;;;;;;21.17;13.60;;;;;;;0.08;96.58;99995.31;1809051;78;20996;-62
2021/01/05 06:15:16;;;;;;;17.07;12.43;;;;;;;0.13;96.60;100001.30;1795578;78;22757;-62
2021/01/05 06:17:44;;;;;;;17.52;12.75;;;;;;;0.12;96.52;100009.87;1801866;78;21080;-62
2021/01/05 06:20:11;;;;;;;;;;;;;;;0.14;96.54;100000.47;1814795;78;21024;-62
2021/01/05 06:22:38;;;;;;;17.07;12.30;;;;;;;0.15;96.52;100003.45;1802400;77;22172;-62
2021/01/05 06:25:08;;;;;;;20.23;12.73;;;;;;;0.14;96.50;99999.59;1747605;80;24442;-62
2021/01/05 06:27:35;;;;;;;18.60;12.43;;;;;;;0.15;96.48;99997.03;1731110;80;21196;-62
2021/01/05 06:30:05;;;;;;;17.25;13.28;;;;;;;0.15;96.48;99997.47;1757430;81;21694;-63
2021/01/05 06:32:37;;;;;;;19.85;12.80;;;;;;;0.18;96.54;100002.16;1750534;79;21191;-63
2021/01/05 06:35:07;;;;;;;18.90;12.13;;;;;;;0.19;96.53;100001.30;1750336;79;21108;-62
2021/01/05 06:37:34;;;;;;;21.52;13.08;;;;;;;0.18;96.41;99994.46;1750682;79;21199;-63
2021/01/05 06:40:01;;;;;;;18.35;13.13;;;;;;;0.17;96.43;99999.62;1750753;79;21616;-63
2021/01/05 06:42:28;;;;;;;23.15;12.70;;;;;;;0.18;96.51;99997.03;1748509;79;21218;-63
2021/01/05 06:44:55;;;;;;;18.80;13.43;;;;;;;0.19;96.55;99996.16;1746827;81;21534;-63
2021/01/05 06:47:22;;;;;;;18.23;11.88;;;;;;;0.20;96.36;99997.05;1746064;80;21060;-62
2021/01/05 06:49:49;;;;;;;16.60;11.88;;;;;;;0.21;96.52;99997.02;1743252;80;21250;-62
2021/01/05 06:52:16;;;;;;;16.35;12.55;;;;;;;0.23;96.48;99996.19;1750584;80;21206;-63
2021/01/05 06:54:44;;;;;;;18.48;13.45;;;;;;;0.20;96.46;99985.05;1744208;81;21210;-63
2021/01/05 06:57:10;;;;;;;14.95;11.88;;;;;;;0.18;96.36;99985.91;1736808;81;21215;-63
2021/01/05 06:59:37;;;;;;;18.07;12.18;;;;;;;0.18;96.43;99986.76;1739187;81;21151;-63
2021/01/05 07:02:06;;;;;;;23.85;13.15;;;;;;;0.20;96.54;99992.76;1731155;81;21194;-63
2021/01/05 07:04:36;;;;;;;20.62;13.53;;;;;;;0.21;96.48;99999.59;1734655;81;21197;-63
2021/01/05 07:07:16;;;;;;;;;;;;;;;;;;;;;
2021/01/05 07:10:13;;;;;;;18.20;13.43;;;;;;;0.27;96.47;99990.17;1872107;75;22769;-63
2021/01/05 07:12:47;;;;;;;19.85;13.40;;;;;;;0.23;96.52;99994.47;1834078;76;21175;-62
2021/01/05 07:15:21;;;;;;;20.43;12.78;;;;;;;0.24;96.49;99982.48;1830654;77;22571;-62
2021/01/05 07:17:52;;;;;;;18.30;11.88;;;;;;;0.25;96.45;99979.04;1841713;77;21024;-63
2021/01/05 07:20:20;;;;;;;21.25;13.13;;;;;;;0.23;96.43;99973.08;1829731;77;21127;-62
2021/01/05 07:22:48;;;;;;;18.82;13.32;;;;;;;0.22;96.41;99969.63;1766198;79;21588;-63
2021/01/05 07:25:20;;;;;;;18.52;13.03;;;;;;;0.20;96.43;99979.92;1770250;80;22169;-62
2021/01/05 07:27:48;;;;;;;19.62;12.98;;;;;;;0.20;96.46;99983.77;1769482;80;21679;-63
2021/01/05 07:30:19;;;;;;;20.43;12.98;;;;;;;0.23;96.49;100001.33;1768341;80;21121;-64
2021/01/05 07:32:50;;;;;;;16.95;12.78;;;;;;;0.23;96.51;99988.48;1773339;80;20962;-64
2021/01/05 07:35:17;;;;;;;18.00;12.73;;;;;;;0.24;96.50;99993.60;1767314;80;21565;-63
2021/01/05 07:37:46;;;;;;;17.70;12.28;;;;;;;0.24;96.49;99987.61;1771181;80;21198;-64
2021/01/05 07:40:16;;;;;;;17.70;12.28;;;;;;;0.26;96.52;99991.05;1771352;80;21197;-63
2021/01/05 07:42:46;;;;;;;19.62;13.35;;;;;;;0.27;96.52;99990.17;1769201;80;20966;-64
2021/01/05 07:45:29;;;;;;;18.77;12.47;;;;;;;0.32;96.50;99985.46;1840848;76;22823;-63
2021/01/05 07:47:59;;;;;;;20.20;12.78;;;;;;;0.27;96.46;99983.76;1802111;78;21625;-63
2021/01/05 07:50:33;;;;;;;15.55;11.68;;;;;;;0.28;96.52;99994.45;1801358;77;21209;-62
2021/01/05 07:53:02;;;;;;;18.85;13.22;;;;;;;0.28;96.54;99993.16;1742545;80;21040;-62
2021/01/05 07:55:33;;;;;;;17.02;12.30;;;;;;;0.30;96.60;99987.60;1739592;81;21148;-63
2021/01/05 07:58:06;;;;;;;15.83;12.20;;;;;;;0.29;96.62;99982.90;1750880;79;20985;-62
2021/01/05 08:00:46;;;;;;;15.43;11.93;;;;;;;0.34;96.62;99985.04;1800797;77;21792;-62
2021/01/05 08:03:13;;;;;;;14.85;11.80;;;;;;;0.30;96.58;99996.59;1774118;79;21024;-63
2021/01/05 08:05:43;;;;;;;15.23;12.47;;;;;;;0.26;96.56;99976.92;1778851;80;21838;-63
2021/01/05 08:08:10;;;;;;;14.70;11.33;;;;;;;0.27;96.61;99974.77;1768030;78;21029;-63
2021/01/05 08:13:19;;;;;;;17.20;12.03;;;;;;;0.33;96.68;99972.18;1863764;75;22367;-63
2021/01/05 08:15:55;;;;;;;16.02;12.43;;;;;;;0.28;96.66;99971.33;1865278;74;21570;-63
2021/01/05 08:18:24;;;;;;;15.78;12.88;;;;;;;0.29;96.60;99973.06;1867020;74;21190;-63
2021/01/05 08:20:51;;;;;;;23.73;13.70;;;;;;;0.29;96.64;99968.77;1868407;74;21033;-62
2021/01/05 08:23:22;;;;;;;16.40;13.05;;;;;;;0.28;96.62;99970.92;1874179;74;21052;-62
2021/01/05 08:25:49;;;;;;;17.07;12.68;;;;;;;0.29;96.66;99979.48;1872662;75;21593;-62
2021/01/05 08:28:18;;;;;;;22.52;13.18;;;;;;;0.31;96.65;99970.03;1869222;74;20984;-62
2021/01/05 08:30:47;;;;;;;14.63;12.07;;;;;;;0.34;96.69;99968.78;1878967;74;21551;-62
2021/01/05 08:33:16;;;;;;;17.65;12.33;;;;;;;0.34;96.67;99963.64;1876252;75;20992;-62
2021/01/05 08:36:09;;;;;;;14.13;11.93;;;;;;;0.40;96.70;99963.63;1793000;79;22791;-63
2021/01/05 08:38:37;;;;;;;15.78;11.60;;;;;;;0.35;96.66;99957.63;1770115;80;21591;-62
2021/01/05 08:41:04;;;;;;;16.15;11.83;;;;;;;0.40;96.79;99963.63;1781211;79;21725;-65
2021/01/05 08:43:30;;;;;;;16.45;10.82;;;;;;;0.44;96.79;99968.73;1773972;80;21064;-62
2021/01/05 08:45:58;;;;;;;12.88;10.23;;;;;;;0.46;96.76;99961.03;1771806;80;21649;-62
2021/01/05 08:48:25;;;;;;;16.87;11.38;;;;;;;0.47;96.74;99967.87;1767078;80;21009;-62
2021/01/05 08:50:52;;;;;;;15.65;11.68;;;;;;;0.51;96.83;99969.59;1778336;80;21540;-62
2021/01/05 08:53:20;;;;;;;15.20;11.00;;;;;;;0.52;96.81;99959.73;1775224;80;21848;-62
2021/01/05 08:55:48;;;;;;;14.35;10.93;;;;;;;0.51;96.72;99969.59;1774790;80;21564;-62
2021/01/05 08:58:15;;;;;;;13.32;10.70;;;;;;;0.50;96.79;99967.01;1772584;80;21046;-62
2021/01/05 09:00:42;;;;;;;13.90;10.68;;;;;;;0.51;96.93;99956.75;1780136;80;21072;-62
2021/01/05 09:03:09;;;;;;;14.47;11.35;;;;;;;0.55;96.89;99960.16;1773141;79;21593;-62
2021/01/05 09:05:37;;;;;;;13.93;10.68;;;;;;;0.56;96.89;99961.45;1775101;80;22798;-62
2021/01/05 09:08:05;;;;;;;15.50;11.15;;;;;;;0.58;96.88;99960.14;1773987;80;20942;-62
2021/01/05 09:10:32;;;;;;;14.40;11.05;;;;;;;0.61;96.92;99962.26;1770542;80;21562;-62
2021/01/05 09:13:00;;;;;;;13.22;10.40;;;;;;;0.67;96.95;99951.11;1772052;80;21933;-62
2021/01/05 09:15:29;;;;;;;15.40;11.50;;;;;;;0.70;96.91;99970.80;1772181;80;21205;-62
2021/01/05 09:18:02;;;;;;;14.95;10.55;;;;;;;0.68;96.85;99948.13;1772510;80;21072;-62
2021/01/05 09:20:31;;;;;;;11.85;9.83;;;;;;;0.69;96.89;99950.68;1771869;80;21054;-62
2021/01/05 09:22:59;;;;;;;15.28;10.13;;;;;;;0.74;96.94;99950.67;1771999;80;21174;-62
2021/01/05 09:25:26;;;;;;;;;;;;;;;0.78;96.97;99956.21;1776699;80;21036;-62
2021/01/05 09:27:54;;;;;;;16.95;11.08;;;;;;;0.80;96.91;99948.08;1774047;80;20337;-63
2021/01/05 09:30:30;;;;;;;15.58;10.70;;;;;;;0.82;96.95;99942.07;1777216;80;21156;-62
2021/01/05 09:32:58;;;;;;;16.00;10.70;;;;;;;0.81;96.90;99939.48;1779130;80;21064;-62
2021/01/05 09:35:26;;;;;;;16.82;11.22;;;;;;;0.85;96.97;99933.50;1762048;80;21197;-62
2021/01/05 09:37:53;;;;;;;15.58;11.90;;;;;;;0.84;96.82;99938.19;1763951;80;21041;-62
2021/01/05 09:40:21;;;;;;;15.55;11.18;;;;;;;0.86;96.90;99930.05;1753914;80;21164;-62
2021/01/05 09:42:48;;;;;;;15.75;11.10;;;;;;;0.88;96.90;99936.05;1754620;81;21191;-63
2021/01/05 09:45:16;;;;;;;17.62;11.50;;;;;;;0.89;96.93;99930.03;1763384;81;21127;-63
2021/01/05 09:47:44;;;;;;;16.02;10.45;;;;;;;0.91;96.88;99924.46;1759633;81;20994;-62
2021/01/05 09:50:12;;;;;;;15.53;11.40;;;;;;;0.93;96.89;99924.03;1757514;80;21116;-62
2021/01/05 09:52:44;;;;;;;17.02;10.98;;;;;;;0.92;96.87;99914.59;1764830;80;21551;-62
2021/01/05 09:55:12;;;;;;;20.27;12.60;;;;;;;0.91;96.89;99910.76;1766242;80;21261;-63
2021/01/05 09:57:39;;;;;;;17.37;11.80;;;;;;;0.89;96.91;99912.03;1765213;80;21549;-62
2021/01/05 10:00:09;;;;;;;15.83;10.82;;;;;;;0.92;97.00;99905.59;1763723;81;21031;-63
2021/01/05 10:02:38;;;;;;;13.98;10.18;;;;;;;0.96;97.01;99902.16;1756672;80;21571;-63
2021/01/05 10:05:07;;;;;;;20.65;12.70;;;;;;;0.99;97.03;99903.42;1755341;81;21251;-63
2021/01/05 10:07:34;;;;;;;17.57;11.90;;;;;;;1.02;97.04;99895.69;1755325;80;21403;-63
2021/01/05 10:10:01;;;;;;;19.92;11.30;;;;;;;1.04;97.00;99896.55;1750742;80;21227;-63
2021/01/05 10:12:30;;;;;;;15.63;11.33;;;;;;;1.05;97.00;99890.53;1759444;80;21203;-62
2021/01/05 10:14:57;;;;;;;18.10;12.58;;;;;;;1.03;96.97;99889.67;1758337;80;21036;-62
2021/01/05 10:17:26;;;;;;;15.53;11.45;;;;;;;1.05;96.98;99876.83;1750560;80;20982;-62
2021/01/05 10:19:53;;;;;;;16.80;12.13;;;;;;;1.10;97.06;99875.93;1758810;80;21201;-62
2021/01/05 10:22:20;;;;;;;16.30;12.03;;;;;;;1.10;97.01;99880.23;1760200;80;21207;-62
2021/01/05 10:24:49;;;;;;;16.50;11.35;;;;;;;1.13;97.08;99863.92;1749862;80;21176;-62
2021/01/05 10:27:17;;;;;;;15.48;11.90;;;;;;;1.14;97.10;99869.48;1750891;80;21080;-62
2021/01/05 10:29:44;;;;;;;18.73;11.90;;;;;;;1.17;97.08;99866.88;1751305;81;21267;-62
2021/01/05 10:32:17;;;;;;;16.90;12.30;;;;;;;1.19;97.07;99858.73;1756538;81;22188;-62
2021/01/05 10:34:45;;;;;;;17.55;12.18;;;;;;;1.19;97.04;99857.45;1758424;81;21220;-62
2021/01/05 10:37:12;;;;;;;16.62;12.13;;;;;;;1.19;97.01;99851.86;1752986;81;21261;-62
2021/01/05 10:39:39;;;;;;;20.52;13.00;;;;;;;1.23;97.08;99855.26;1761477;80;21241;-62
2021/01/05 10:42:08;;;;;;;17.65;11.83;;;;;;;1.20;97.03;99853.56;1761738;80;21113;-62
2021/01/05 10:44:38;;;;;;;16.62;10.65;;;;;;;1.23;97.05;99850.11;1747087;80;21287;-62
2021/01/05 10:47:07;;;;;;;15.10;10.98;;;;;;;1.26;97.08;99835.53;1751545;80;21281;-62
2021/01/05 10:49:35;;;;;;;17.87;11.12;;;;;;;1.28;97.02;99844.52;1756226;80;21010;-62
2021/01/05 10:52:03;;;;;;;17.27;10.40;;;;;;;1.28;97.02;99830.36;1751085;80;21183;-62
2021/01/05 10:54:30;;;;;;;14.47;10.50;;;;;;;1.28;96.94;99843.22;1754673;80;21188;-62
2021/01/05 10:57:03;;;;;;;18.10;10.30;;;;;;;1.30;96.99;99823.49;1758428;80;21013;-62
2021/01/05 10:59:31;;;;;;;14.07;9.40;;;;;;;1.34;97.06;99822.59;1749027;80;21227;-62
2021/01/05 11:02:02;;;;;;;17.02;9.70;;;;;;;1.34;96.95;99823.88;1753448;80;22400;-62
2021/01/05 11:04:31;;;;;;;18.62;9.90;;;;;;;1.35;96.93;99819.17;1765362;81;21186;-62
2021/01/05 11:07:07;;;;;;;14.65;9.93;;;;;;;1.34;96.90;99852.17;1757217;80;21148;-62
2021/01/05 11:09:35;;;;;;;14.87;9.83;;;;;;;1.34;96.89;99830.31;1753559;80;22346;-62
2021/01/05 11:12:12;;;;;;;13.53;9.03;;;;;;;1.31;96.91;99804.17;1759992;81;21176;-62
2021/01/05 11:14:41;;;;;;;14.05;9.38;;;;;;;1.35;97.00;99799.88;1763056;81;20998;-62
2021/01/05 11:17:09;;;;;;;16.35;9.98;;;;;;;1.33;96.87;99800.31;1758793;80;21697;-62
2021/01/05 11:19:40;;;;;;;13.88;9.53;;;;;;;1.35;96.96;99802.45;1756362;80;21625;-62
2021/01/05 11:22:13;;;;;;;15.43;9.80;;;;;;;1.34;96.94;99807.16;1756999;81;21274;-61
2021/01/05 11:24:42;;;;;;;13.38;9.25;;;;;;;1.32;96.90;99796.05;1755052;80;21619;-62
2021/01/05 11:27:10;;;;;;;13.85;9.83;;;;;;;1.34;96.94;99794.29;1743399;81;21179;-63
2021/01/05 11:29:37;;;;;;;13.32;9.63;;;;;;;1.35;96.94;99788.30;1753629;81;21200;-62
2021/01/05 11:32:13;;;;;;;14.95;8.75;;;;;;;1.36;96.94;99787.42;1758570;80;21065;-62
2021/01/05 11:34:41;;;;;;;14.78;8.55;;;;;;;1.32;96.91;99784.03;1747989;80;21624;-61
2021/01/05 11:37:13;;;;;;;13.35;8.83;;;;;;;1.36;96.94;99770.70;1762195;80;21434;-62
2021/01/05 11:39:46;;;;;;;12.28;8.65;;;;;;;1.36;96.95;99759.13;1760006;80;21488;-62
2021/01/05 11:42:21;;;;;;;12.63;9.30;;;;;;;1.34;96.92;99768.56;1761343;80;21579;-62
2021/01/05 11:44:49;;;;;;;11.12;8.63;;;;;;;1.32;96.92;99745.88;1763660;80;21273;-63
2021/01/05 11:47:21;;;;;;;10.48;8.60;;;;;;;1.32;96.91;99744.59;1760398;80;21661;-62
2021/01/05 11:49:49;;;;;;;13.10;8.70;;;;;;;1.33;96.95;99743.72;1760463;80;21678;-62
2021/01/05 11:52:17;;;;;;;12.88;8.75;;;;;;;1.34;96.98;99745.41;1768354;80;21010;-61
2021/01/05 11:55:00;;;;;;;10.53;7.20;;;;;;;1.37;96.96;99759.97;1763994;80;21978;-62
2021/01/05 11:57:38;;;;;;;11.33;8.28;;;;;;;1.37;97.00;99763.39;1763753;80;21019;-62
2021/01/05 12:00:09;;;;;;;10.30;7.92;;;;;;;1.40;97.04;99740.23;1758748;80;21690;-62